sensor_id;sensor_type;location;lat;lon;timestamp;P1;durP1;ratioP1;P2;durP2;ratioP2
19193;SDS011;9729;52.296;13.260;2023-09-30T00:00:42;7.80;;;3.40;;
19193;SDS011;9729;52.296;13.260;2023-09-30T00:03:09;11.63;;;4.20;;
19193;SDS011;9729;52.296;13.260;2023-09-30T00:05:37;16.87;;;4.57;;
19193;SDS011;9729;52.296;13.260;2023-09-30T00:08:04;11.77;;;4.27;;
19193;SDS011;9729;52.296;13.260;2023-09-30T00:10:31;10.70;;;4.00;;
19193;SDS011;9729;52.296;13.260;2023-09-30T00:12:58;10.17;;;3.90;;
19193;SDS011;9729;52.296;13.260;2023-09-30T00:15:24;11.87;;;3.67;;
19193;SDS011;9729;52.296;13.260;2023-09-30T00:17:51;14.13;;;4.40;;
19193;SDS011;9729;52.296;13.260;2023-09-30T00:20:17;10.00;;;4.03;;
19193;SDS011;9729;52.296;13.260;2023-09-30T00:22:45;12.17;;;4.90;;
19193;SDS011;9729;52.296;13.260;2023-09-30T00:25:11;11.47;;;3.90;;
19193;SDS011;9729;52.296;13.260;2023-09-30T00:27:37;11.53;;;4.67;;
19193;SDS011;9729;52.296;13.260;2023-09-30T00:30:04;11.00;;;5.10;;
19193;SDS011;9729;52.296;13.260;2023-09-30T00:32:31;15.77;;;4.53;;
19193;SDS011;9729;52.296;13.260;2023-09-30T00:34:57;12.47;;;4.80;;
19193;SDS011;9729;52.296;13.260;2023-09-30T00:37:24;12.30;;;4.47;;
19193;SDS011;9729;52.296;13.260;2023-09-30T00:39:52;14.03;;;4.50;;
19193;SDS011;9729;52.296;13.260;2023-09-30T00:42:18;14.20;;;5.00;;
19193;SDS011;9729;52.296;13.260;2023-09-30T00:44:45;12.87;;;4.27;;
19193;SDS011;9729;52.296;13.260;2023-09-30T00:47:12;14.37;;;4.30;;
19193;SDS011;9729;52.296;13.260;2023-09-30T00:49:40;18.03;;;4.90;;
19193;SDS011;9729;52.296;13.260;2023-09-30T00:52:07;10.07;;;4.20;;
19193;SDS011;9729;52.296;13.260;2023-09-30T00:54:33;21.10;;;4.47;;
19193;SDS011;9729;52.296;13.260;2023-09-30T00:57:02;14.90;;;4.97;;
19193;SDS011;9729;52.296;13.260;2023-09-30T00:59:28;13.73;;;4.67;;
19193;SDS011;9729;52.296;13.260;2023-09-30T01:01:56;16.97;;;4.27;;
19193;SDS011;9729;52.296;13.260;2023-09-30T01:04:23;11.77;;;4.20;;
19193;SDS011;9729;52.296;13.260;2023-09-30T01:06:51;10.60;;;5.20;;
19193;SDS011;9729;52.296;13.260;2023-09-30T01:09:17;27.77;;;4.57;;
19193;SDS011;9729;52.296;13.260;2023-09-30T01:11:44;10.73;;;4.47;;
19193;SDS011;9729;52.296;13.260;2023-09-30T01:14:24;13.60;;;3.97;;
19193;SDS011;9729;52.296;13.260;2023-09-30T01:16:51;10.47;;;4.53;;
19193;SDS011;9729;52.296;13.260;2023-09-30T01:19:18;18.23;;;4.80;;
19193;SDS011;9729;52.296;13.260;2023-09-30T01:21:45;16.03;;;5.37;;
19193;SDS011;9729;52.296;13.260;2023-09-30T01:24:13;16.67;;;4.27;;
19193;SDS011;9729;52.296;13.260;2023-09-30T01:26:39;15.27;;;4.37;;
19193;SDS011;9729;52.296;13.260;2023-09-30T01:29:07;15.43;;;5.07;;
19193;SDS011;9729;52.296;13.260;2023-09-30T01:31:35;18.73;;;5.30;;
19193;SDS011;9729;52.296;13.260;2023-09-30T01:34:02;12.83;;;4.30;;
19193;SDS011;9729;52.296;13.260;2023-09-30T01:36:28;12.47;;;4.57;;
19193;SDS011;9729;52.296;13.260;2023-09-30T01:38:56;12.07;;;5.07;;
19193;SDS011;9729;52.296;13.260;2023-09-30T01:41:22;15.50;;;5.20;;
19193;SDS011;9729;52.296;13.260;2023-09-30T01:43:49;10.77;;;4.87;;
19193;SDS011;9729;52.296;13.260;2023-09-30T01:46:15;16.67;;;5.00;;
19193;SDS011;9729;52.296;13.260;2023-09-30T01:48:41;10.17;;;4.27;;
19193;SDS011;9729;52.296;13.260;2023-09-30T01:51:08;21.80;;;4.90;;
19193;SDS011;9729;52.296;13.260;2023-09-30T01:53:34;20.03;;;6.00;;
19193;SDS011;9729;52.296;13.260;2023-09-30T01:56:03;13.83;;;5.03;;
19193;SDS011;9729;52.296;13.260;2023-09-30T01:58:29;9.80;;;4.57;;
19193;SDS011;9729;52.296;13.260;2023-09-30T02:01:01;10.27;;;5.13;;
19193;SDS011;9729;52.296;13.260;2023-09-30T02:03:28;19.50;;;5.20;;
19193;SDS011;9729;52.296;13.260;2023-09-30T02:05:54;16.60;;;4.50;;
19193;SDS011;9729;52.296;13.260;2023-09-30T02:08:21;18.57;;;5.00;;
19193;SDS011;9729;52.296;13.260;2023-09-30T02:10:47;13.57;;;5.10;;
19193;SDS011;9729;52.296;13.260;2023-09-30T02:13:15;11.03;;;4.70;;
19193;SDS011;9729;52.296;13.260;2023-09-30T02:15:41;13.23;;;4.73;;
19193;SDS011;9729;52.296;13.260;2023-09-30T02:18:06;14.27;;;6.37;;
19193;SDS011;9729;52.296;13.260;2023-09-30T02:20:34;9.70;;;4.43;;
19193;SDS011;9729;52.296;13.260;2023-09-30T02:23:04;18.03;;;6.27;;
19193;SDS011;9729;52.296;13.260;2023-09-30T02:25:31;13.27;;;5.30;;
19193;SDS011;9729;52.296;13.260;2023-09-30T02:27:58;13.97;;;4.90;;
19193;SDS011;9729;52.296;13.260;2023-09-30T02:30:26;16.97;;;5.63;;
19193;SDS011;9729;52.296;13.260;2023-09-30T02:32:53;20.00;;;5.33;;
19193;SDS011;9729;52.296;13.260;2023-09-30T02:35:21;15.10;;;4.73;;
19193;SDS011;9729;52.296;13.260;2023-09-30T02:37:47;16.03;;;5.77;;
19193;SDS011;9729;52.296;13.260;2023-09-30T02:40:14;15.87;;;5.03;;
19193;SDS011;9729;52.296;13.260;2023-09-30T02:42:42;12.67;;;5.00;;
19193;SDS011;9729;52.296;13.260;2023-09-30T02:45:10;22.93;;;6.33;;
19193;SDS011;9729;52.296;13.260;2023-09-30T02:47:39;18.27;;;5.83;;
19193;SDS011;9729;52.296;13.260;2023-09-30T02:50:06;21.37;;;6.37;;
19193;SDS011;9729;52.296;13.260;2023-09-30T02:52:33;15.17;;;5.33;;
19193;SDS011;9729;52.296;13.260;2023-09-30T02:55:01;17.23;;;6.40;;
19193;SDS011;9729;52.296;13.260;2023-09-30T02:57:28;13.90;;;5.77;;
19193;SDS011;9729;52.296;13.260;2023-09-30T02:59:54;13.33;;;6.07;;
19193;SDS011;9729;52.296;13.260;2023-09-30T03:02:21;24.50;;;7.03;;
19193;SDS011;9729;52.296;13.260;2023-09-30T03:04:49;21.47;;;6.43;;
19193;SDS011;9729;52.296;13.260;2023-09-30T03:07:17;22.43;;;7.30;;
19193;SDS011;9729;52.296;13.260;2023-09-30T03:09:44;20.27;;;6.13;;
19193;SDS011;9729;52.296;13.260;2023-09-30T03:12:11;20.57;;;6.10;;
19193;SDS011;9729;52.296;13.260;2023-09-30T03:14:38;17.33;;;5.67;;
19193;SDS011;9729;52.296;13.260;2023-09-30T03:17:05;22.23;;;6.97;;
19193;SDS011;9729;52.296;13.260;2023-09-30T03:19:36;21.67;;;6.70;;
19193;SDS011;9729;52.296;13.260;2023-09-30T03:22:04;25.60;;;7.13;;
19193;SDS011;9729;52.296;13.260;2023-09-30T03:24:31;19.33;;;6.50;;
19193;SDS011;9729;52.296;13.260;2023-09-30T03:26:57;29.90;;;5.97;;
19193;SDS011;9729;52.296;13.260;2023-09-30T03:29:23;24.10;;;6.23;;
19193;SDS011;9729;52.296;13.260;2023-09-30T03:31:51;25.73;;;7.70;;
19193;SDS011;9729;52.296;13.260;2023-09-30T03:34:17;32.50;;;7.90;;
19193;SDS011;9729;52.296;13.260;2023-09-30T03:36:45;28.17;;;7.07;;
19193;SDS011;9729;52.296;13.260;2023-09-30T03:39:13;23.70;;;7.50;;
19193;SDS011;9729;52.296;13.260;2023-09-30T03:41:40;20.33;;;6.43;;
19193;SDS011;9729;52.296;13.260;2023-09-30T03:44:06;18.87;;;6.53;;
19193;SDS011;9729;52.296;13.260;2023-09-30T03:46:33;21.50;;;6.80;;
19193;SDS011;9729;52.296;13.260;2023-09-30T03:48:59;21.70;;;6.20;;
19193;SDS011;9729;52.296;13.260;2023-09-30T03:51:26;17.83;;;6.00;;
19193;SDS011;9729;52.296;13.260;2023-09-30T03:53:52;19.53;;;6.57;;
19193;SDS011;9729;52.296;13.260;2023-09-30T03:56:20;21.63;;;5.83;;
19193;SDS011;9729;52.296;13.260;2023-09-30T03:58:47;16.40;;;6.50;;
19193;SDS011;9729;52.296;13.260;2023-09-30T04:01:14;23.30;;;6.57;;
19193;SDS011;9729;52.296;13.260;2023-09-30T04:03:41;23.83;;;6.40;;
19193;SDS011;9729;52.296;13.260;2023-09-30T04:06:08;27.70;;;6.80;;
19193;SDS011;9729;52.296;13.260;2023-09-30T04:08:35;26.70;;;6.33;;
19193;SDS011;9729;52.296;13.260;2023-09-30T04:11:01;21.03;;;6.67;;
19193;SDS011;9729;52.296;13.260;2023-09-30T04:13:30;24.17;;;6.23;;
19193;SDS011;9729;52.296;13.260;2023-09-30T04:15:56;16.93;;;6.33;;
19193;SDS011;9729;52.296;13.260;2023-09-30T04:18:23;18.37;;;5.80;;
19193;SDS011;9729;52.296;13.260;2023-09-30T04:20:51;17.73;;;6.50;;
19193;SDS011;9729;52.296;13.260;2023-09-30T04:23:17;17.77;;;6.00;;
19193;SDS011;9729;52.296;13.260;2023-09-30T04:25:45;19.07;;;7.77;;
19193;SDS011;9729;52.296;13.260;2023-09-30T04:28:11;20.43;;;6.70;;
19193;SDS011;9729;52.296;13.260;2023-09-30T04:30:40;23.37;;;7.03;;
19193;SDS011;9729;52.296;13.260;2023-09-30T04:33:07;26.97;;;7.70;;
19193;SDS011;9729;52.296;13.260;2023-09-30T04:35:34;27.23;;;7.53;;
19193;SDS011;9729;52.296;13.260;2023-09-30T04:38:01;27.73;;;7.63;;
19193;SDS011;9729;52.296;13.260;2023-09-30T04:40:29;28.60;;;7.17;;
19193;SDS011;9729;52.296;13.260;2023-09-30T04:42:55;17.07;;;6.50;;
19193;SDS011;9729;52.296;13.260;2023-09-30T04:45:23;15.60;;;5.80;;
19193;SDS011;9729;52.296;13.260;2023-09-30T04:47:52;22.37;;;7.00;;
19193;SDS011;9729;52.296;13.260;2023-09-30T04:50:18;16.93;;;6.53;;
19193;SDS011;9729;52.296;13.260;2023-09-30T04:52:46;15.97;;;6.23;;
19193;SDS011;9729;52.296;13.260;2023-09-30T04:55:13;29.57;;;8.00;;
19193;SDS011;9729;52.296;13.260;2023-09-30T04:57:41;24.57;;;6.90;;
19193;SDS011;9729;52.296;13.260;2023-09-30T05:00:10;17.30;;;6.63;;
19193;SDS011;9729;52.296;13.260;2023-09-30T05:02:37;21.03;;;7.53;;
19193;SDS011;9729;52.296;13.260;2023-09-30T05:05:05;23.10;;;7.23;;
19193;SDS011;9729;52.296;13.260;2023-09-30T05:07:32;17.23;;;7.27;;
19193;SDS011;9729;52.296;13.260;2023-09-30T05:09:58;25.53;;;7.13;;
19193;SDS011;9729;52.296;13.260;2023-09-30T05:12:25;22.60;;;7.20;;
19193;SDS011;9729;52.296;13.260;2023-09-30T05:14:51;21.37;;;6.17;;
19193;SDS011;9729;52.296;13.260;2023-09-30T05:17:20;22.63;;;6.87;;
19193;SDS011;9729;52.296;13.260;2023-09-30T05:19:46;24.50;;;7.53;;
19193;SDS011;9729;52.296;13.260;2023-09-30T05:22:14;16.20;;;6.40;;
19193;SDS011;9729;52.296;13.260;2023-09-30T05:24:43;17.90;;;7.00;;
19193;SDS011;9729;52.296;13.260;2023-09-30T05:27:10;15.93;;;7.33;;
19193;SDS011;9729;52.296;13.260;2023-09-30T05:29:36;26.43;;;7.37;;
19193;SDS011;9729;52.296;13.260;2023-09-30T05:32:02;19.60;;;6.97;;
19193;SDS011;9729;52.296;13.260;2023-09-30T05:34:29;22.43;;;7.57;;
19193;SDS011;9729;52.296;13.260;2023-09-30T05:36:55;16.27;;;7.13;;
19193;SDS011;9729;52.296;13.260;2023-09-30T05:39:23;21.00;;;8.43;;
19193;SDS011;9729;52.296;13.260;2023-09-30T05:41:50;24.47;;;6.60;;
19193;SDS011;9729;52.296;13.260;2023-09-30T05:44:17;21.23;;;7.07;;
19193;SDS011;9729;52.296;13.260;2023-09-30T05:46:43;22.13;;;7.53;;
19193;SDS011;9729;52.296;13.260;2023-09-30T05:49:10;24.63;;;6.60;;
19193;SDS011;9729;52.296;13.260;2023-09-30T05:51:38;21.90;;;6.47;;
19193;SDS011;9729;52.296;13.260;2023-09-30T05:54:05;21.57;;;7.37;;
19193;SDS011;9729;52.296;13.260;2023-09-30T05:56:34;18.50;;;6.57;;
19193;SDS011;9729;52.296;13.260;2023-09-30T05:59:01;19.83;;;7.67;;
19193;SDS011;9729;52.296;13.260;2023-09-30T06:01:30;25.87;;;7.10;;
19193;SDS011;9729;52.296;13.260;2023-09-30T06:03:57;19.87;;;7.00;;
19193;SDS011;9729;52.296;13.260;2023-09-30T06:06:24;18.07;;;7.77;;
19193;SDS011;9729;52.296;13.260;2023-09-30T06:08:51;19.93;;;7.90;;
19193;SDS011;9729;52.296;13.260;2023-09-30T06:11:18;22.77;;;8.13;;
19193;SDS011;9729;52.296;13.260;2023-09-30T06:13:50;25.50;;;6.57;;
19193;SDS011;9729;52.296;13.260;2023-09-30T06:16:17;22.53;;;7.60;;
19193;SDS011;9729;52.296;13.260;2023-09-30T06:18:44;22.50;;;7.03;;
19193;SDS011;9729;52.296;13.260;2023-09-30T06:21:11;24.13;;;6.63;;
19193;SDS011;9729;52.296;13.260;2023-09-30T06:23:37;17.47;;;6.50;;
19193;SDS011;9729;52.296;13.260;2023-09-30T06:26:03;16.70;;;5.70;;
19193;SDS011;9729;52.296;13.260;2023-09-30T06:28:30;23.83;;;7.10;;
19193;SDS011;9729;52.296;13.260;2023-09-30T06:31:00;22.23;;;6.90;;
19193;SDS011;9729;52.296;13.260;2023-09-30T06:33:26;16.53;;;5.57;;
19193;SDS011;9729;52.296;13.260;2023-09-30T06:35:54;18.23;;;6.33;;
19193;SDS011;9729;52.296;13.260;2023-09-30T06:38:20;18.23;;;6.70;;
19193;SDS011;9729;52.296;13.260;2023-09-30T06:40:47;19.40;;;6.03;;
19193;SDS011;9729;52.296;13.260;2023-09-30T06:43:13;29.43;;;6.60;;
19193;SDS011;9729;52.296;13.260;2023-09-30T06:45:40;18.13;;;6.20;;
19193;SDS011;9729;52.296;13.260;2023-09-30T06:48:08;16.70;;;5.77;;
19193;SDS011;9729;52.296;13.260;2023-09-30T06:50:37;19.37;;;6.63;;
19193;SDS011;9729;52.296;13.260;2023-09-30T06:53:04;16.63;;;6.17;;
19193;SDS011;9729;52.296;13.260;2023-09-30T06:55:31;21.27;;;7.13;;
19193;SDS011;9729;52.296;13.260;2023-09-30T06:57:57;23.57;;;6.33;;
19193;SDS011;9729;52.296;13.260;2023-09-30T07:00:23;19.40;;;6.03;;
19193;SDS011;9729;52.296;13.260;2023-09-30T07:02:50;19.33;;;6.63;;
19193;SDS011;9729;52.296;13.260;2023-09-30T07:05:18;25.60;;;6.17;;
19193;SDS011;9729;52.296;13.260;2023-09-30T07:07:44;16.33;;;5.73;;
19193;SDS011;9729;52.296;13.260;2023-09-30T07:10:11;17.13;;;5.40;;
19193;SDS011;9729;52.296;13.260;2023-09-30T07:12:37;24.80;;;6.20;;
19193;SDS011;9729;52.296;13.260;2023-09-30T07:15:04;19.53;;;6.27;;
19193;SDS011;9729;52.296;13.260;2023-09-30T07:17:32;13.70;;;5.40;;
19193;SDS011;9729;52.296;13.260;2023-09-30T07:19:58;14.83;;;5.73;;
19193;SDS011;9729;52.296;13.260;2023-09-30T07:22:26;24.63;;;5.97;;
19193;SDS011;9729;52.296;13.260;2023-09-30T07:24:52;18.13;;;5.73;;
19193;SDS011;9729;52.296;13.260;2023-09-30T07:27:19;20.23;;;5.63;;
19193;SDS011;9729;52.296;13.260;2023-09-30T07:29:45;20.33;;;6.17;;
19193;SDS011;9729;52.296;13.260;2023-09-30T07:32:13;22.33;;;5.87;;
19193;SDS011;9729;52.296;13.260;2023-09-30T07:34:39;18.80;;;5.43;;
19193;SDS011;9729;52.296;13.260;2023-09-30T07:37:06;16.73;;;6.53;;
19193;SDS011;9729;52.296;13.260;2023-09-30T07:39:34;17.30;;;5.90;;
19193;SDS011;9729;52.296;13.260;2023-09-30T07:42:01;19.13;;;5.57;;
19193;SDS011;9729;52.296;13.260;2023-09-30T07:44:27;15.83;;;5.70;;
19193;SDS011;9729;52.296;13.260;2023-09-30T07:46:53;20.30;;;6.37;;
19193;SDS011;9729;52.296;13.260;2023-09-30T07:49:20;21.47;;;5.83;;
19193;SDS011;9729;52.296;13.260;2023-09-30T07:51:46;14.97;;;5.40;;
19193;SDS011;9729;52.296;13.260;2023-09-30T07:54:12;24.70;;;5.80;;
19193;SDS011;9729;52.296;13.260;2023-09-30T07:56:40;24.67;;;6.67;;
19193;SDS011;9729;52.296;13.260;2023-09-30T07:59:06;20.17;;;6.20;;
19193;SDS011;9729;52.296;13.260;2023-09-30T08:01:33;24.10;;;6.23;;
19193;SDS011;9729;52.296;13.260;2023-09-30T08:03:59;15.50;;;5.70;;
19193;SDS011;9729;52.296;13.260;2023-09-30T08:06:26;21.47;;;5.70;;
19193;SDS011;9729;52.296;13.260;2023-09-30T08:08:52;18.17;;;5.40;;
19193;SDS011;9729;52.296;13.260;2023-09-30T08:11:20;18.40;;;5.70;;
19193;SDS011;9729;52.296;13.260;2023-09-30T08:13:48;23.17;;;5.73;;
19193;SDS011;9729;52.296;13.260;2023-09-30T08:16:14;17.37;;;5.77;;
19193;SDS011;9729;52.296;13.260;2023-09-30T08:18:40;62.27;;;10.63;;
19193;SDS011;9729;52.296;13.260;2023-09-30T08:21:08;15.90;;;5.07;;
19193;SDS011;9729;52.296;13.260;2023-09-30T08:23:36;18.33;;;4.93;;
19193;SDS011;9729;52.296;13.260;2023-09-30T08:26:03;19.07;;;5.87;;
19193;SDS011;9729;52.296;13.260;2023-09-30T08:28:30;19.93;;;4.90;;
19193;SDS011;9729;52.296;13.260;2023-09-30T08:31:02;20.80;;;5.57;;
19193;SDS011;9729;52.296;13.260;2023-09-30T08:33:29;18.42;;;5.78;;
19193;SDS011;9729;52.296;13.260;2023-09-30T08:35:56;16.27;;;5.60;;
19193;SDS011;9729;52.296;13.260;2023-09-30T08:38:23;18.93;;;5.77;;
19193;SDS011;9729;52.296;13.260;2023-09-30T08:40:51;18.40;;;5.67;;
19193;SDS011;9729;52.296;13.260;2023-09-30T08:43:18;22.13;;;5.57;;
19193;SDS011;9729;52.296;13.260;2023-09-30T08:45:45;27.53;;;6.13;;
19193;SDS011;9729;52.296;13.260;2023-09-30T08:48:14;21.90;;;6.63;;
19193;SDS011;9729;52.296;13.260;2023-09-30T08:50:40;13.30;;;4.77;;
19193;SDS011;9729;52.296;13.260;2023-09-30T08:53:08;17.67;;;5.53;;
19193;SDS011;9729;52.296;13.260;2023-09-30T08:55:36;52.27;;;9.70;;
19193;SDS011;9729;52.296;13.260;2023-09-30T08:58:03;31.70;;;6.97;;
19193;SDS011;9729;52.296;13.260;2023-09-30T09:00:30;21.27;;;4.90;;
19193;SDS011;9729;52.296;13.260;2023-09-30T09:02:56;24.43;;;5.77;;
19193;SDS011;9729;52.296;13.260;2023-09-30T09:05:24;20.67;;;6.03;;
19193;SDS011;9729;52.296;13.260;2023-09-30T09:07:50;15.50;;;4.30;;
19193;SDS011;9729;52.296;13.260;2023-09-30T09:10:17;19.40;;;4.77;;
19193;SDS011;9729;52.296;13.260;2023-09-30T09:12:43;18.13;;;5.17;;
19193;SDS011;9729;52.296;13.260;2023-09-30T09:15:21;39.30;;;6.00;;
19193;SDS011;9729;52.296;13.260;2023-09-30T09:17:49;17.77;;;4.33;;
19193;SDS011;9729;52.296;13.260;2023-09-30T09:20:17;15.40;;;4.47;;
19193;SDS011;9729;52.296;13.260;2023-09-30T09:22:47;18.53;;;5.07;;
19193;SDS011;9729;52.296;13.260;2023-09-30T09:25:16;24.17;;;4.57;;
19193;SDS011;9729;52.296;13.260;2023-09-30T09:27:42;26.33;;;4.60;;
19193;SDS011;9729;52.296;13.260;2023-09-30T09:30:16;33.37;;;5.83;;
19193;SDS011;9729;52.296;13.260;2023-09-30T09:35:33;13.03;;;4.37;;
19193;SDS011;9729;52.296;13.260;2023-09-30T09:38:02;15.80;;;4.30;;
19193;SDS011;9729;52.296;13.260;2023-09-30T09:40:29;16.67;;;4.53;;
19193;SDS011;9729;52.296;13.260;2023-09-30T09:42:57;25.10;;;6.40;;
19193;SDS011;9729;52.296;13.260;2023-09-30T09:45:25;21.20;;;4.33;;
19193;SDS011;9729;52.296;13.260;2023-09-30T09:47:52;14.90;;;4.27;;
19193;SDS011;9729;52.296;13.260;2023-09-30T09:50:19;20.90;;;4.37;;
19193;SDS011;9729;52.296;13.260;2023-09-30T09:52:47;26.33;;;4.97;;
19193;SDS011;9729;52.296;13.260;2023-09-30T09:55:17;16.03;;;4.57;;
19193;SDS011;9729;52.296;13.260;2023-09-30T09:57:44;16.07;;;4.17;;
19193;SDS011;9729;52.296;13.260;2023-09-30T10:00:12;12.40;;;5.00;;
19193;SDS011;9729;52.296;13.260;2023-09-30T10:02:40;15.07;;;4.20;;
19193;SDS011;9729;52.296;13.260;2023-09-30T10:05:06;15.17;;;4.03;;
19193;SDS011;9729;52.296;13.260;2023-09-30T10:07:34;16.43;;;4.87;;
19193;SDS011;9729;52.296;13.260;2023-09-30T10:10:04;12.33;;;3.53;;
19193;SDS011;9729;52.296;13.260;2023-09-30T10:12:36;14.77;;;4.03;;
19193;SDS011;9729;52.296;13.260;2023-09-30T10:18:01;15.53;;;4.23;;
19193;SDS011;9729;52.296;13.260;2023-09-30T10:20:29;16.53;;;4.13;;
19193;SDS011;9729;52.296;13.260;2023-09-30T10:25:44;15.40;;;4.10;;
19193;SDS011;9729;52.296;13.260;2023-09-30T10:31:12;12.80;;;4.30;;
19193;SDS011;9729;52.296;13.260;2023-09-30T10:36:46;10.23;;;3.83;;
19193;SDS011;9729;52.296;13.260;2023-09-30T10:39:13;14.27;;;4.00;;
19193;SDS011;9729;52.296;13.260;2023-09-30T10:41:48;13.77;;;4.23;;
19193;SDS011;9729;52.296;13.260;2023-09-30T10:44:35;10.33;;;3.60;;
19193;SDS011;9729;52.296;13.260;2023-09-30T10:50:00;11.00;;;3.53;;
19193;SDS011;9729;52.296;13.260;2023-09-30T10:52:27;19.07;;;3.97;;
19193;SDS011;9729;52.296;13.260;2023-09-30T10:54:53;11.47;;;3.70;;
19193;SDS011;9729;52.296;13.260;2023-09-30T10:57:26;13.53;;;3.63;;
19193;SDS011;9729;52.296;13.260;2023-09-30T11:00:07;28.77;;;4.60;;
19193;SDS011;9729;52.296;13.260;2023-09-30T11:02:47;16.17;;;3.77;;
19193;SDS011;9729;52.296;13.260;2023-09-30T11:05:14;15.03;;;3.87;;
19193;SDS011;9729;52.296;13.260;2023-09-30T11:07:40;13.97;;;4.00;;
19193;SDS011;9729;52.296;13.260;2023-09-30T11:10:08;12.80;;;4.97;;
19193;SDS011;9729;52.296;13.260;2023-09-30T11:12:36;11.47;;;4.17;;
19193;SDS011;9729;52.296;13.260;2023-09-30T11:15:04;13.60;;;4.33;;
19193;SDS011;9729;52.296;13.260;2023-09-30T11:17:35;11.73;;;3.60;;
19193;SDS011;9729;52.296;13.260;2023-09-30T11:20:02;12.30;;;3.57;;
19193;SDS011;9729;52.296;13.260;2023-09-30T11:22:31;11.20;;;3.90;;
19193;SDS011;9729;52.296;13.260;2023-09-30T11:24:59;13.30;;;3.77;;
19193;SDS011;9729;52.296;13.260;2023-09-30T11:27:26;12.13;;;3.73;;
19193;SDS011;9729;52.296;13.260;2023-09-30T11:29:52;10.83;;;3.50;;
19193;SDS011;9729;52.296;13.260;2023-09-30T11:32:25;9.00;;;3.47;;
19193;SDS011;9729;52.296;13.260;2023-09-30T11:34:53;13.37;;;4.23;;
19193;SDS011;9729;52.296;13.260;2023-09-30T11:37:19;10.83;;;3.80;;
19193;SDS011;9729;52.296;13.260;2023-09-30T11:39:46;11.00;;;3.17;;
19193;SDS011;9729;52.296;13.260;2023-09-30T11:42:14;10.60;;;3.83;;
19193;SDS011;9729;52.296;13.260;2023-09-30T11:44:44;13.77;;;4.17;;
19193;SDS011;9729;52.296;13.260;2023-09-30T11:47:11;18.50;;;3.97;;
19193;SDS011;9729;52.296;13.260;2023-09-30T11:49:39;13.07;;;3.23;;
19193;SDS011;9729;52.296;13.260;2023-09-30T11:52:07;12.60;;;4.30;;
19193;SDS011;9729;52.296;13.260;2023-09-30T11:54:35;11.73;;;3.80;;
19193;SDS011;9729;52.296;13.260;2023-09-30T11:57:04;12.77;;;4.07;;
19193;SDS011;9729;52.296;13.260;2023-09-30T11:59:31;13.30;;;4.33;;
19193;SDS011;9729;52.296;13.260;2023-09-30T12:01:57;20.67;;;5.33;;
19193;SDS011;9729;52.296;13.260;2023-09-30T12:04:24;12.80;;;3.40;;
19193;SDS011;9729;52.296;13.260;2023-09-30T12:06:50;15.30;;;4.70;;
19193;SDS011;9729;52.296;13.260;2023-09-30T12:09:18;13.43;;;3.83;;
19193;SDS011;9729;52.296;13.260;2023-09-30T12:11:47;9.20;;;4.30;;
19193;SDS011;9729;52.296;13.260;2023-09-30T12:14:13;10.93;;;3.73;;
19193;SDS011;9729;52.296;13.260;2023-09-30T12:16:40;7.90;;;3.53;;
19193;SDS011;9729;52.296;13.260;2023-09-30T12:19:10;8.97;;;3.37;;
19193;SDS011;9729;52.296;13.260;2023-09-30T12:21:36;10.47;;;3.40;;
19193;SDS011;9729;52.296;13.260;2023-09-30T12:24:03;11.77;;;3.17;;
19193;SDS011;9729;52.296;13.260;2023-09-30T12:26:31;12.60;;;3.87;;
19193;SDS011;9729;52.296;13.260;2023-09-30T12:28:57;16.57;;;3.93;;
19193;SDS011;9729;52.296;13.260;2023-09-30T12:31:24;7.57;;;3.47;;
19193;SDS011;9729;52.296;13.260;2023-09-30T12:33:50;9.50;;;2.77;;
19193;SDS011;9729;52.296;13.260;2023-09-30T12:36:17;11.37;;;3.23;;
19193;SDS011;9729;52.296;13.260;2023-09-30T12:38:43;8.73;;;3.87;;
19193;SDS011;9729;52.296;13.260;2023-09-30T12:41:10;6.47;;;2.90;;
19193;SDS011;9729;52.296;13.260;2023-09-30T12:43:38;8.50;;;3.50;;
19193;SDS011;9729;52.296;13.260;2023-09-30T12:46:06;13.97;;;3.63;;
19193;SDS011;9729;52.296;13.260;2023-09-30T12:48:33;6.43;;;2.67;;
19193;SDS011;9729;52.296;13.260;2023-09-30T12:51:00;8.27;;;3.50;;
19193;SDS011;9729;52.296;13.260;2023-09-30T12:53:29;7.03;;;3.07;;
19193;SDS011;9729;52.296;13.260;2023-09-30T12:55:55;7.03;;;2.93;;
19193;SDS011;9729;52.296;13.260;2023-09-30T12:58:22;10.27;;;3.23;;
19193;SDS011;9729;52.296;13.260;2023-09-30T13:00:49;12.37;;;3.37;;
19193;SDS011;9729;52.296;13.260;2023-09-30T13:03:16;8.97;;;3.03;;
19193;SDS011;9729;52.296;13.260;2023-09-30T13:05:42;11.03;;;3.10;;
19193;SDS011;9729;52.296;13.260;2023-09-30T13:08:08;15.03;;;3.87;;
19193;SDS011;9729;52.296;13.260;2023-09-30T13:10:36;32.90;;;6.40;;
19193;SDS011;9729;52.296;13.260;2023-09-30T13:13:03;6.43;;;3.17;;
19193;SDS011;9729;52.296;13.260;2023-09-30T13:15:30;11.73;;;3.70;;
19193;SDS011;9729;52.296;13.260;2023-09-30T13:17:57;9.03;;;3.20;;
19193;SDS011;9729;52.296;13.260;2023-09-30T13:20:24;7.37;;;2.83;;
19193;SDS011;9729;52.296;13.260;2023-09-30T13:22:50;9.73;;;3.10;;
19193;SDS011;9729;52.296;13.260;2023-09-30T13:25:17;6.93;;;2.93;;
19193;SDS011;9729;52.296;13.260;2023-09-30T13:27:44;5.23;;;3.00;;
19193;SDS011;9729;52.296;13.260;2023-09-30T13:30:11;7.43;;;3.47;;
19193;SDS011;9729;52.296;13.260;2023-09-30T13:32:38;15.40;;;3.33;;
19193;SDS011;9729;52.296;13.260;2023-09-30T13:35:06;10.20;;;3.67;;
19193;SDS011;9729;52.296;13.260;2023-09-30T13:37:33;10.90;;;3.03;;
19193;SDS011;9729;52.296;13.260;2023-09-30T13:40:02;8.03;;;3.43;;
19193;SDS011;9729;52.296;13.260;2023-09-30T13:42:29;12.57;;;3.47;;
19193;SDS011;9729;52.296;13.260;2023-09-30T13:44:56;6.83;;;2.87;;
19193;SDS011;9729;52.296;13.260;2023-09-30T13:47:24;9.57;;;3.13;;
19193;SDS011;9729;52.296;13.260;2023-09-30T13:49:51;5.30;;;2.77;;
19193;SDS011;9729;52.296;13.260;2023-09-30T13:52:19;6.30;;;2.70;;
19193;SDS011;9729;52.296;13.260;2023-09-30T13:54:45;4.63;;;2.70;;
19193;SDS011;9729;52.296;13.260;2023-09-30T13:57:12;6.20;;;2.83;;
19193;SDS011;9729;52.296;13.260;2023-09-30T13:59:39;10.10;;;2.80;;
19193;SDS011;9729;52.296;13.260;2023-09-30T14:02:07;6.70;;;2.77;;
19193;SDS011;9729;52.296;13.260;2023-09-30T14:04:33;9.83;;;3.37;;
19193;SDS011;9729;52.296;13.260;2023-09-30T14:07:00;7.17;;;3.37;;
19193;SDS011;9729;52.296;13.260;2023-09-30T14:09:28;8.73;;;3.43;;
19193;SDS011;9729;52.296;13.260;2023-09-30T14:11:54;10.23;;;3.20;;
19193;SDS011;9729;52.296;13.260;2023-09-30T14:14:22;5.03;;;2.63;;
19193;SDS011;9729;52.296;13.260;2023-09-30T14:16:49;6.37;;;3.07;;
19193;SDS011;9729;52.296;13.260;2023-09-30T14:19:15;13.00;;;3.20;;
19193;SDS011;9729;52.296;13.260;2023-09-30T14:21:42;7.67;;;3.03;;
19193;SDS011;9729;52.296;13.260;2023-09-30T14:24:08;9.60;;;3.30;;
19193;SDS011;9729;52.296;13.260;2023-09-30T14:26:37;6.53;;;2.83;;
19193;SDS011;9729;52.296;13.260;2023-09-30T14:29:04;10.47;;;2.90;;
19193;SDS011;9729;52.296;13.260;2023-09-30T14:31:30;8.27;;;3.13;;
19193;SDS011;9729;52.296;13.260;2023-09-30T14:33:57;10.43;;;2.67;;
19193;SDS011;9729;52.296;13.260;2023-09-30T14:36:23;9.83;;;2.70;;
19193;SDS011;9729;52.296;13.260;2023-09-30T14:38:50;5.77;;;3.07;;
19193;SDS011;9729;52.296;13.260;2023-09-30T14:41:17;9.03;;;2.97;;
19193;SDS011;9729;52.296;13.260;2023-09-30T14:43:45;15.50;;;3.00;;
19193;SDS011;9729;52.296;13.260;2023-09-30T14:46:12;6.60;;;2.50;;
19193;SDS011;9729;52.296;13.260;2023-09-30T14:48:38;9.67;;;2.80;;
19193;SDS011;9729;52.296;13.260;2023-09-30T14:51:04;9.13;;;2.83;;
19193;SDS011;9729;52.296;13.260;2023-09-30T14:53:32;12.47;;;3.70;;